sensor_id;sensor_type;location;lat;lon;timestamp;temperature;humidity
51476;DHT22;37554;50.362;7.568;2023-07-08T00:00:19;25.70;42.60
51476;DHT22;37554;50.362;7.568;2023-07-08T00:02:45;25.70;42.60
51476;DHT22;37554;50.362;7.568;2023-07-08T00:05:12;25.70;42.60
51476;DHT22;37554;50.362;7.568;2023-07-08T00:07:39;25.70;42.60
51476;DHT22;37554;50.362;7.568;2023-07-08T00:10:25;25.70;42.60
51476;DHT22;37554;50.362;7.568;2023-07-08T00:12:53;25.70;42.70
51476;DHT22;37554;50.362;7.568;2023-07-08T00:15:22;25.70;42.60
51476;DHT22;37554;50.362;7.568;2023-07-08T00:17:49;25.60;42.60
51476;DHT22;37554;50.362;7.568;2023-07-08T00:20:22;25.60;42.60
51476;DHT22;37554;50.362;7.568;2023-07-08T00:22:48;25.60;42.70
51476;DHT22;37554;50.362;7.568;2023-07-08T00:25:16;25.60;42.70
51476;DHT22;37554;50.362;7.568;2023-07-08T00:27:42;25.50;42.60
51476;DHT22;37554;50.362;7.568;2023-07-08T00:30:17;25.50;42.70
51476;DHT22;37554;50.362;7.568;2023-07-08T00:32:44;25.50;42.80
51476;DHT22;37554;50.362;7.568;2023-07-08T00:35:10;25.50;42.70
51476;DHT22;37554;50.362;7.568;2023-07-08T00:37:36;25.50;42.80
51476;DHT22;37554;50.362;7.568;2023-07-08T00:40:15;25.40;42.70
51476;DHT22;37554;50.362;7.568;2023-07-08T00:42:43;25.50;42.90
51476;DHT22;37554;50.362;7.568;2023-07-08T00:45:38;25.40;42.90
51476;DHT22;37554;50.362;7.568;2023-07-08T00:48:27;25.40;43.00
51476;DHT22;37554;50.362;7.568;2023-07-08T00:50:54;25.40;43.00
51476;DHT22;37554;50.362;7.568;2023-07-08T00:55:59;25.40;43.00
51476;DHT22;37554;50.362;7.568;2023-07-08T00:58:29;25.30;43.00
51476;DHT22;37554;50.362;7.568;2023-07-08T01:00:56;25.30;43.00
51476;DHT22;37554;50.362;7.568;2023-07-08T01:03:23;25.30;43.00
51476;DHT22;37554;50.362;7.568;2023-07-08T01:05:51;25.30;43.10
51476;DHT22;37554;50.362;7.568;2023-07-08T01:08:17;25.30;43.10
51476;DHT22;37554;50.362;7.568;2023-07-08T01:10:49;25.30;43.10
51476;DHT22;37554;50.362;7.568;2023-07-08T01:13:17;25.30;43.20
51476;DHT22;37554;50.362;7.568;2023-07-08T01:15:44;25.20;43.20
51476;DHT22;37554;50.362;7.568;2023-07-08T01:18:12;25.20;43.20
51476;DHT22;37554;50.362;7.568;2023-07-08T01:20:42;25.20;43.30
51476;DHT22;37554;50.362;7.568;2023-07-08T01:23:09;25.10;43.30
51476;DHT22;37554;50.362;7.568;2023-07-08T01:25:36;25.10;43.40
51476;DHT22;37554;50.362;7.568;2023-07-08T01:28:03;25.10;43.40
51476;DHT22;37554;50.362;7.568;2023-07-08T01:30:29;25.10;43.50
51476;DHT22;37554;50.362;7.568;2023-07-08T01:32:59;25.10;43.50
51476;DHT22;37554;50.362;7.568;2023-07-08T01:35:27;25.00;43.60
51476;DHT22;37554;50.362;7.568;2023-07-08T01:37:58;25.00;43.60
51476;DHT22;37554;50.362;7.568;2023-07-08T01:40:30;25.00;43.60
51476;DHT22;37554;50.362;7.568;2023-07-08T01:42:56;25.00;43.70
51476;DHT22;37554;50.362;7.568;2023-07-08T01:45:25;24.90;43.70
51476;DHT22;37554;50.362;7.568;2023-07-08T01:47:57;24.90;43.70
51476;DHT22;37554;50.362;7.568;2023-07-08T01:50:24;24.90;43.80
51476;DHT22;37554;50.362;7.568;2023-07-08T01:52:52;24.90;43.90
51476;DHT22;37554;50.362;7.568;2023-07-08T01:55:23;24.90;44.60
51476;DHT22;37554;50.362;7.568;2023-07-08T01:57:51;24.80;44.00
51476;DHT22;37554;50.362;7.568;2023-07-08T02:00:18;24.80;44.10
51476;DHT22;37554;50.362;7.568;2023-07-08T02:02:43;24.80;44.20
51476;DHT22;37554;50.362;7.568;2023-07-08T02:05:09;24.80;44.30
51476;DHT22;37554;50.362;7.568;2023-07-08T02:07:34;24.80;44.30
51476;DHT22;37554;50.362;7.568;2023-07-08T02:10:00;24.80;44.40
51476;DHT22;37554;50.362;7.568;2023-07-08T02:12:26;24.70;44.40
51476;DHT22;37554;50.362;7.568;2023-07-08T02:14:51;24.70;44.40
51476;DHT22;37554;50.362;7.568;2023-07-08T02:17:17;24.70;44.50
51476;DHT22;37554;50.362;7.568;2023-07-08T02:19:43;24.70;44.60
51476;DHT22;37554;50.362;7.568;2023-07-08T02:22:09;24.70;44.60
51476;DHT22;37554;50.362;7.568;2023-07-08T02:24:35;24.70;44.70
51476;DHT22;37554;50.362;7.568;2023-07-08T02:27:00;24.70;44.70
51476;DHT22;37554;50.362;7.568;2023-07-08T02:29:26;24.60;44.70
51476;DHT22;37554;50.362;7.568;2023-07-08T02:31:52;24.60;44.70
51476;DHT22;37554;50.362;7.568;2023-07-08T02:34:18;24.60;44.80
51476;DHT22;37554;50.362;7.568;2023-07-08T02:36:44;24.50;44.80
51476;DHT22;37554;50.362;7.568;2023-07-08T02:39:10;24.50;44.80
51476;DHT22;37554;50.362;7.568;2023-07-08T02:41:36;24.50;44.90
51476;DHT22;37554;50.362;7.568;2023-07-08T02:44:02;24.50;45.00
51476;DHT22;37554;50.362;7.568;2023-07-08T02:46:28;24.40;45.00
51476;DHT22;37554;50.362;7.568;2023-07-08T02:48:53;24.40;45.00
51476;DHT22;37554;50.362;7.568;2023-07-08T02:51:19;24.40;45.10
51476;DHT22;37554;50.362;7.568;2023-07-08T02:53:44;24.40;45.10
51476;DHT22;37554;50.362;7.568;2023-07-08T02:56:10;24.40;45.80
51476;DHT22;37554;50.362;7.568;2023-07-08T02:58:36;24.40;45.30
51476;DHT22;37554;50.362;7.568;2023-07-08T03:01:02;24.40;45.40
51476;DHT22;37554;50.362;7.568;2023-07-08T03:03:28;24.30;45.40
51476;DHT22;37554;50.362;7.568;2023-07-08T03:05:59;24.30;45.40
51476;DHT22;37554;50.362;7.568;2023-07-08T03:08:25;24.30;45.40
51476;DHT22;37554;50.362;7.568;2023-07-08T03:11:03;24.30;45.50
51476;DHT22;37554;50.362;7.568;2023-07-08T03:13:29;24.30;45.80
51476;DHT22;37554;50.362;7.568;2023-07-08T03:15:58;24.20;45.70
51476;DHT22;37554;50.362;7.568;2023-07-08T03:18:28;24.20;45.80
51476;DHT22;37554;50.362;7.568;2023-07-08T03:20:56;24.20;45.80
51476;DHT22;37554;50.362;7.568;2023-07-08T03:23:23;24.20;45.80
51476;DHT22;37554;50.362;7.568;2023-07-08T03:25:49;24.20;45.80
51476;DHT22;37554;50.362;7.568;2023-07-08T03:28:15;24.20;45.80
51476;DHT22;37554;50.362;7.568;2023-07-08T03:30:41;24.20;45.80
51476;DHT22;37554;50.362;7.568;2023-07-08T03:33:08;24.20;45.80
51476;DHT22;37554;50.362;7.568;2023-07-08T03:35:34;24.10;45.80
51476;DHT22;37554;50.362;7.568;2023-07-08T03:38:00;24.10;45.80
51476;DHT22;37554;50.362;7.568;2023-07-08T03:40:25;24.10;45.90
51476;DHT22;37554;50.362;7.568;2023-07-08T03:42:51;24.10;46.10
51476;DHT22;37554;50.362;7.568;2023-07-08T03:45:17;24.10;46.00
51476;DHT22;37554;50.362;7.568;2023-07-08T03:47:42;24.10;46.00
51476;DHT22;37554;50.362;7.568;2023-07-08T03:50:20;24.00;46.00
51476;DHT22;37554;50.362;7.568;2023-07-08T03:52:47;24.00;46.20
51476;DHT22;37554;50.362;7.568;2023-07-08T03:55:13;24.00;46.00
51476;DHT22;37554;50.362;7.568;2023-07-08T03:57:39;24.00;46.00
51476;DHT22;37554;50.362;7.568;2023-07-08T04:00:05;24.00;46.10
51476;DHT22;37554;50.362;7.568;2023-07-08T04:02:44;24.00;46.10
51476;DHT22;37554;50.362;7.568;2023-07-08T04:05:21;24.00;46.20
51476;DHT22;37554;50.362;7.568;2023-07-08T04:07:48;24.00;46.60
51476;DHT22;37554;50.362;7.568;2023-07-08T04:10:15;23.90;46.50
51476;DHT22;37554;50.362;7.568;2023-07-08T04:12:42;23.90;46.80
51476;DHT22;37554;50.362;7.568;2023-07-08T04:15:09;23.80;46.90
51476;DHT22;37554;50.362;7.568;2023-07-08T04:17:39;23.80;47.00
51476;DHT22;37554;50.362;7.568;2023-07-08T04:20:08;23.80;47.10
51476;DHT22;37554;50.362;7.568;2023-07-08T04:22:36;23.80;47.10
51476;DHT22;37554;50.362;7.568;2023-07-08T04:25:02;23.80;47.20
51476;DHT22;37554;50.362;7.568;2023-07-08T04:27:30;23.80;47.30
51476;DHT22;37554;50.362;7.568;2023-07-08T04:29:55;23.80;47.30
51476;DHT22;37554;50.362;7.568;2023-07-08T04:32:21;23.80;47.40
51476;DHT22;37554;50.362;7.568;2023-07-08T04:34:53;23.80;47.50
51476;DHT22;37554;50.362;7.568;2023-07-08T04:37:19;23.70;47.60
51476;DHT22;37554;50.362;7.568;2023-07-08T04:39:45;23.80;47.60
51476;DHT22;37554;50.362;7.568;2023-07-08T04:42:11;23.70;47.60
51476;DHT22;37554;50.362;7.568;2023-07-08T04:44:42;23.70;47.60
51476;DHT22;37554;50.362;7.568;2023-07-08T04:47:08;23.80;47.70
51476;DHT22;37554;50.362;7.568;2023-07-08T04:49:39;23.80;47.70
51476;DHT22;37554;50.362;7.568;2023-07-08T04:52:08;23.80;47.60
51476;DHT22;37554;50.362;7.568;2023-07-08T04:54:34;23.80;47.60
51476;DHT22;37554;50.362;7.568;2023-07-08T04:57:00;23.80;47.60
51476;DHT22;37554;50.362;7.568;2023-07-08T04:59:25;23.90;47.70
51476;DHT22;37554;50.362;7.568;2023-07-08T05:01:52;23.90;47.70
51476;DHT22;37554;50.362;7.568;2023-07-08T05:04:20;23.90;47.70
51476;DHT22;37554;50.362;7.568;2023-07-08T05:06:46;23.90;47.70
51476;DHT22;37554;50.362;7.568;2023-07-08T05:09:11;23.90;47.70
51476;DHT22;37554;50.362;7.568;2023-07-08T05:11:37;23.90;47.60
51476;DHT22;37554;50.362;7.568;2023-07-08T05:14:04;23.90;47.60
51476;DHT22;37554;50.362;7.568;2023-07-08T05:16:31;23.90;47.60
51476;DHT22;37554;50.362;7.568;2023-07-08T05:18:57;23.90;47.50
51476;DHT22;37554;50.362;7.568;2023-07-08T05:21:23;23.90;47.40
51476;DHT22;37554;50.362;7.568;2023-07-08T05:23:49;23.90;47.40
51476;DHT22;37554;50.362;7.568;2023-07-08T05:26:15;24.00;47.30
51476;DHT22;37554;50.362;7.568;2023-07-08T05:28:41;24.00;47.20
51476;DHT22;37554;50.362;7.568;2023-07-08T05:31:07;24.00;47.00
51476;DHT22;37554;50.362;7.568;2023-07-08T05:33:33;24.00;47.00
51476;DHT22;37554;50.362;7.568;2023-07-08T05:35:59;23.80;47.40
51476;DHT22;37554;50.362;7.568;2023-07-08T05:38:25;23.70;47.80
51476;DHT22;37554;50.362;7.568;2023-07-08T05:40:54;23.60;48.30
51476;DHT22;37554;50.362;7.568;2023-07-08T05:43:20;23.50;48.80
51476;DHT22;37554;50.362;7.568;2023-07-08T05:45:45;23.40;49.10
51476;DHT22;37554;50.362;7.568;2023-07-08T05:48:11;23.50;49.40
51476;DHT22;37554;50.362;7.568;2023-07-08T05:50:37;23.50;49.70
51476;DHT22;37554;50.362;7.568;2023-07-08T05:53:03;23.40;49.50
51476;DHT22;37554;50.362;7.568;2023-07-08T05:55:29;23.40;50.00
51476;DHT22;37554;50.362;7.568;2023-07-08T05:57:54;23.40;50.20
51476;DHT22;37554;50.362;7.568;2023-07-08T06:00:20;23.40;50.30
51476;DHT22;37554;50.362;7.568;2023-07-08T06:02:46;23.40;50.40
51476;DHT22;37554;50.362;7.568;2023-07-08T06:05:11;23.40;50.70
51476;DHT22;37554;50.362;7.568;2023-07-08T06:07:37;23.30;51.00
51476;DHT22;37554;50.362;7.568;2023-07-08T06:10:03;23.30;50.90
51476;DHT22;37554;50.362;7.568;2023-07-08T06:12:29;23.40;50.90
51476;DHT22;37554;50.362;7.568;2023-07-08T06:14:56;23.40;51.70
51476;DHT22;37554;50.362;7.568;2023-07-08T06:17:21;23.30;51.00
51476;DHT22;37554;50.362;7.568;2023-07-08T06:19:47;23.40;50.90
51476;DHT22;37554;50.362;7.568;2023-07-08T06:22:13;23.50;50.60
51476;DHT22;37554;50.362;7.568;2023-07-08T06:24:38;23.60;50.10
51476;DHT22;37554;50.362;7.568;2023-07-08T06:27:04;23.50;49.80
51476;DHT22;37554;50.362;7.568;2023-07-08T06:29:30;23.70;49.70
51476;DHT22;37554;50.362;7.568;2023-07-08T06:31:56;23.70;49.50
51476;DHT22;37554;50.362;7.568;2023-07-08T06:34:22;23.70;49.50
51476;DHT22;37554;50.362;7.568;2023-07-08T06:36:49;23.70;49.10
51476;DHT22;37554;50.362;7.568;2023-07-08T06:39:15;23.70;49.50
51476;DHT22;37554;50.362;7.568;2023-07-08T06:41:42;23.70;50.30
51476;DHT22;37554;50.362;7.568;2023-07-08T06:44:07;23.70;50.60
51476;DHT22;37554;50.362;7.568;2023-07-08T06:46:33;23.80;49.70
51476;DHT22;37554;50.362;7.568;2023-07-08T06:48:59;23.90;49.00
51476;DHT22;37554;50.362;7.568;2023-07-08T06:51:25;23.90;49.10
51476;DHT22;37554;50.362;7.568;2023-07-08T06:53:51;24.10;48.90
51476;DHT22;37554;50.362;7.568;2023-07-08T06:56:17;24.20;48.40
51476;DHT22;37554;50.362;7.568;2023-07-08T06:58:42;24.40;48.10
51476;DHT22;37554;50.362;7.568;2023-07-08T07:01:08;24.50;48.20
51476;DHT22;37554;50.362;7.568;2023-07-08T07:03:34;24.60;48.10
51476;DHT22;37554;50.362;7.568;2023-07-08T07:05:59;24.70;47.90
51476;DHT22;37554;50.362;7.568;2023-07-08T07:08:25;24.80;47.60
51476;DHT22;37554;50.362;7.568;2023-07-08T07:10:50;25.00;46.90
51476;DHT22;37554;50.362;7.568;2023-07-08T07:13:16;25.10;46.60
51476;DHT22;37554;50.362;7.568;2023-07-08T07:15:42;25.20;46.40
51476;DHT22;37554;50.362;7.568;2023-07-08T07:18:07;25.40;46.10
51476;DHT22;37554;50.362;7.568;2023-07-08T07:20:35;25.50;45.70
51476;DHT22;37554;50.362;7.568;2023-07-08T07:23:01;25.60;45.40
51476;DHT22;37554;50.362;7.568;2023-07-08T07:25:27;25.70;45.30
51476;DHT22;37554;50.362;7.568;2023-07-08T07:27:52;25.90;45.40
51476;DHT22;37554;50.362;7.568;2023-07-08T07:30:18;26.00;45.00
51476;DHT22;37554;50.362;7.568;2023-07-08T07:32:44;26.10;44.80
51476;DHT22;37554;50.362;7.568;2023-07-08T07:35:11;26.10;44.20
51476;DHT22;37554;50.362;7.568;2023-07-08T07:37:41;26.20;44.40
51476;DHT22;37554;50.362;7.568;2023-07-08T07:40:12;26.30;44.10
51476;DHT22;37554;50.362;7.568;2023-07-08T07:42:40;26.40;44.00
51476;DHT22;37554;50.362;7.568;2023-07-08T07:45:06;26.50;43.90
51476;DHT22;37554;50.362;7.568;2023-07-08T07:47:32;26.60;43.70
51476;DHT22;37554;50.362;7.568;2023-07-08T07:49:58;26.70;43.90
51476;DHT22;37554;50.362;7.568;2023-07-08T07:52:24;26.80;43.70
51476;DHT22;37554;50.362;7.568;2023-07-08T07:54:54;26.90;43.90
51476;DHT22;37554;50.362;7.568;2023-07-08T07:57:21;27.10;43.70
51476;DHT22;37554;50.362;7.568;2023-07-08T07:59:46;27.20;43.50
51476;DHT22;37554;50.362;7.568;2023-07-08T08:02:12;27.40;43.20
51476;DHT22;37554;50.362;7.568;2023-07-08T08:04:38;27.40;42.70
51476;DHT22;37554;50.362;7.568;2023-07-08T08:07:04;27.50;42.70
51476;DHT22;37554;50.362;7.568;2023-07-08T08:09:29;27.60;42.90
51476;DHT22;37554;50.362;7.568;2023-07-08T08:11:55;27.70;42.90
51476;DHT22;37554;50.362;7.568;2023-07-08T08:14:21;27.70;42.90
51476;DHT22;37554;50.362;7.568;2023-07-08T08:16:47;27.80;42.60
51476;DHT22;37554;50.362;7.568;2023-07-08T08:19:12;27.90;42.50
51476;DHT22;37554;50.362;7.568;2023-07-08T08:21:38;28.00;42.40
51476;DHT22;37554;50.362;7.568;2023-07-08T08:24:04;28.10;42.00
51476;DHT22;37554;50.362;7.568;2023-07-08T08:26:29;28.10;41.90
51476;DHT22;37554;50.362;7.568;2023-07-08T08:28:56;28.20;42.10
51476;DHT22;37554;50.362;7.568;2023-07-08T08:31:21;28.30;42.00
51476;DHT22;37554;50.362;7.568;2023-07-08T08:33:47;28.40;42.00
51476;DHT22;37554;50.362;7.568;2023-07-08T08:36:12;28.60;41.80
51476;DHT22;37554;50.362;7.568;2023-07-08T08:38:38;28.70;41.90
51476;DHT22;37554;50.362;7.568;2023-07-08T08:41:13;28.80;41.70
51476;DHT22;37554;50.362;7.568;2023-07-08T08:43:41;29.00;42.50
51476;DHT22;37554;50.362;7.568;2023-07-08T08:46:38;29.20;42.30
51476;DHT22;37554;50.362;7.568;2023-07-08T08:49:29;29.40;40.70
51476;DHT22;37554;50.362;7.568;2023-07-08T08:51:58;29.60;39.70
51476;DHT22;37554;50.362;7.568;2023-07-08T08:54:24;29.90;40.00
51476;DHT22;37554;50.362;7.568;2023-07-08T08:56:57;30.00;39.40
51476;DHT22;37554;50.362;7.568;2023-07-08T09:02:47;30.50;38.80
51476;DHT22;37554;50.362;7.568;2023-07-08T09:05:18;30.80;38.50
51476;DHT22;37554;50.362;7.568;2023-07-08T09:08:04;31.00;37.70
51476;DHT22;37554;50.362;7.568;2023-07-08T09:13:06;31.10;36.50
51476;DHT22;37554;50.362;7.568;2023-07-08T09:15:32;31.10;36.60
51476;DHT22;37554;50.362;7.568;2023-07-08T09:18:10;31.20;36.20
51476;DHT22;37554;50.362;7.568;2023-07-08T09:20:38;31.20;35.90
51476;DHT22;37554;50.362;7.568;2023-07-08T09:23:25;31.40;36.20
51476;DHT22;37554;50.362;7.568;2023-07-08T09:26:09;31.50;35.10
51476;DHT22;37554;50.362;7.568;2023-07-08T09:28:40;31.60;34.90
51476;DHT22;37554;50.362;7.568;2023-07-08T09:31:08;31.60;35.20
51476;DHT22;37554;50.362;7.568;2023-07-08T09:33:38;31.50;34.60
51476;DHT22;37554;50.362;7.568;2023-07-08T09:36:16;31.50;34.40
51476;DHT22;37554;50.362;7.568;2023-07-08T09:38:42;31.60;33.60
51476;DHT22;37554;50.362;7.568;2023-07-08T09:41:08;31.70;34.00
51476;DHT22;37554;50.362;7.568;2023-07-08T09:43:37;32.00;34.40
51476;DHT22;37554;50.362;7.568;2023-07-08T09:46:04;32.20;34.30
51476;DHT22;37554;50.362;7.568;2023-07-08T09:48:35;32.30;33.70
51476;DHT22;37554;50.362;7.568;2023-07-08T09:51:02;32.50;33.20
51476;DHT22;37554;50.362;7.568;2023-07-08T09:53:28;32.50;32.90
51476;DHT22;37554;50.362;7.568;2023-07-08T09:55:56;32.60;33.20
51476;DHT22;37554;50.362;7.568;2023-07-08T09:58:33;32.70;32.90
51476;DHT22;37554;50.362;7.568;2023-07-08T10:01:10;33.00;33.10
51476;DHT22;37554;50.362;7.568;2023-07-08T10:03:36;33.00;32.70
51476;DHT22;37554;50.362;7.568;2023-07-08T10:06:05;33.20;33.20
51476;DHT22;37554;50.362;7.568;2023-07-08T10:08:39;33.40;33.50
51476;DHT22;37554;50.362;7.568;2023-07-08T10:13:53;33.50;32.70
51476;DHT22;37554;50.362;7.568;2023-07-08T10:16:31;33.50;32.80
51476;DHT22;37554;50.362;7.568;2023-07-08T10:18:57;33.60;32.50
51476;DHT22;37554;50.362;7.568;2023-07-08T10:30:09;34.00;32.30
51476;DHT22;37554;50.362;7.568;2023-07-08T10:33:09;34.10;32.90
51476;DHT22;37554;50.362;7.568;2023-07-08T10:35:37;34.20;32.40
51476;DHT22;37554;50.362;7.568;2023-07-08T10:38:31;34.40;32.60
51476;DHT22;37554;50.362;7.568;2023-07-08T10:41:13;34.30;32.10
51476;DHT22;37554;50.362;7.568;2023-07-08T10:43:45;34.40;32.30
51476;DHT22;37554;50.362;7.568;2023-07-08T10:49:00;34.50;32.40
51476;DHT22;37554;50.362;7.568;2023-07-08T11:05:28;35.40;32.50
51476;DHT22;37554;50.362;7.568;2023-07-08T11:08:20;35.60;32.30
51476;DHT22;37554;50.362;7.568;2023-07-08T11:10:56;36.00;31.30
51476;DHT22;37554;50.362;7.568;2023-07-08T11:13:26;36.30;31.40
51476;DHT22;37554;50.362;7.568;2023-07-08T11:16:15;36.70;31.00
51476;DHT22;37554;50.362;7.568;2023-07-08T11:19:06;37.20;30.60
51476;DHT22;37554;50.362;7.568;2023-07-08T11:21:47;37.70;29.80
51476;DHT22;37554;50.362;7.568;2023-07-08T11:27:08;38.80;29.50
51476;DHT22;37554;50.362;7.568;2023-07-08T11:29:49;39.20;29.30
51476;DHT22;37554;50.362;7.568;2023-07-08T11:32:21;39.80;29.20
51476;DHT22;37554;50.362;7.568;2023-07-08T11:34:51;40.30;28.80
51476;DHT22;37554;50.362;7.568;2023-07-08T11:37:18;40.40;28.50
51476;DHT22;37554;50.362;7.568;2023-07-08T11:39:46;40.60;28.50
51476;DHT22;37554;50.362;7.568;2023-07-08T11:45:23;41.00;28.70
51476;DHT22;37554;50.362;7.568;2023-07-08T11:47:50;41.10;28.50
51476;DHT22;37554;50.362;7.568;2023-07-08T11:50:35;41.00;28.60
51476;DHT22;37554;50.362;7.568;2023-07-08T11:53:14;40.80;28.30
51476;DHT22;37554;50.362;7.568;2023-07-08T11:58:32;40.00;29.10
51476;DHT22;37554;50.362;7.568;2023-07-08T12:03:51;39.30;29.70
51476;DHT22;37554;50.362;7.568;2023-07-08T12:08:57;38.80;30.50
51476;DHT22;37554;50.362;7.568;2023-07-08T12:11:34;38.50;30.80
51476;DHT22;37554;50.362;7.568;2023-07-08T12:14:02;38.40;30.60
51476;DHT22;37554;50.362;7.568;2023-07-08T12:16:29;38.20;30.70
51476;DHT22;37554;50.362;7.568;2023-07-08T12:18:58;38.20;31.00
51476;DHT22;37554;50.362;7.568;2023-07-08T12:21:26;38.10;31.10
51476;DHT22;37554;50.362;7.568;2023-07-08T12:23:53;38.10;31.30
51476;DHT22;37554;50.362;7.568;2023-07-08T12:26:20;38.10;31.20
51476;DHT22;37554;50.362;7.568;2023-07-08T12:28:47;37.90;31.20
51476;DHT22;37554;50.362;7.568;2023-07-08T12:31:18;37.90;31.40
51476;DHT22;37554;50.362;7.568;2023-07-08T12:33:44;38.00;31.70
51476;DHT22;37554;50.362;7.568;2023-07-08T12:36:13;38.10;31.30
51476;DHT22;37554;50.362;7.568;2023-07-08T12:38:43;38.20;31.50
51476;DHT22;37554;50.362;7.568;2023-07-08T12:41:15;38.30;31.30
51476;DHT22;37554;50.362;7.568;2023-07-08T12:43:41;38.30;31.40
51476;DHT22;37554;50.362;7.568;2023-07-08T12:46:10;38.20;31.30
51476;DHT22;37554;50.362;7.568;2023-07-08T12:48:39;38.20;31.10
51476;DHT22;37554;50.362;7.568;2023-07-08T12:51:11;38.20;30.80
51476;DHT22;37554;50.362;7.568;2023-07-08T12:53:37;38.20;31.10
51476;DHT22;37554;50.362;7.568;2023-07-08T12:56:03;38.20;31.00
51476;DHT22;37554;50.362;7.568;2023-07-08T12:58:31;38.10;30.80
51476;DHT22;37554;50.362;7.568;2023-07-08T13:00:59;38.20;30.80
51476;DHT22;37554;50.362;7.568;2023-07-08T13:03:28;38.20;30.80
51476;DHT22;37554;50.362;7.568;2023-07-08T13:05:56;38.30;31.00
51476;DHT22;37554;50.362;7.568;2023-07-08T13:08:25;38.20;30.80
51476;DHT22;37554;50.362;7.568;2023-07-08T13:10:55;38.40;30.80
51476;DHT22;37554;50.362;7.568;2023-07-08T13:13:26;38.40;30.80
51476;DHT22;37554;50.362;7.568;2023-07-08T13:15:53;38.60;31.20
51476;DHT22;37554;50.362;7.568;2023-07-08T13:18:22;38.60;31.30
51476;DHT22;37554;50.362;7.568;2023-07-08T13:20:58;38.40;31.40
51476;DHT22;37554;50.362;7.568;2023-07-08T13:23:24;37.90;30.60
51476;DHT22;37554;50.362;7.568;2023-07-08T13:25:52;37.70;31.10
51476;DHT22;37554;50.362;7.568;2023-07-08T13:28:26;37.90;31.40
51476;DHT22;37554;50.362;7.568;2023-07-08T13:33:20;37.50;31.10
51476;DHT22;37554;50.362;7.568;2023-07-08T13:35:47;37.50;31.50
51476;DHT22;37554;50.362;7.568;2023-07-08T13:38:19;37.70;31.20
51476;DHT22;37554;50.362;7.568;2023-07-08T13:40:53;37.70;30.80
51476;DHT22;37554;50.362;7.568;2023-07-08T13:43:24;37.80;31.10
51476;DHT22;37554;50.362;7.568;2023-07-08T13:45:50;38.00;30.70
51476;DHT22;37554;50.362;7.568;2023-07-08T13:48:29;37.80;30.90
51476;DHT22;37554;50.362;7.568;2023-07-08T13:51:18;37.60;30.80
51476;DHT22;37554;50.362;7.568;2023-07-08T13:53:53;37.70;30.80
51476;DHT22;37554;50.362;7.568;2023-07-08T13:56:29;37.80;30.30
51476;DHT22;37554;50.362;7.568;2023-07-08T13:59:06;37.90;30.50
51476;DHT22;37554;50.362;7.568;2023-07-08T14:01:34;37.70;30.00
51476;DHT22;37554;50.362;7.568;2023-07-08T14:04:01;37.50;30.10
51476;DHT22;37554;50.362;7.568;2023-07-08T14:06:31;37.20;30.00
51476;DHT22;37554;50.362;7.568;2023-07-08T14:08:59;37.20;30.50
51476;DHT22;37554;50.362;7.568;2023-07-08T14:11:25;36.90;30.60
51476;DHT22;37554;50.362;7.568;2023-07-08T14:13:51;36.60;31.10
51476;DHT22;37554;50.362;7.568;2023-07-08T14:16:25;36.40;31.40
51476;DHT22;37554;50.362;7.568;2023-07-08T14:18:53;36.20;31.70
51476;DHT22;37554;50.362;7.568;2023-07-08T14:21:19;36.30;31.70
51476;DHT22;37554;50.362;7.568;2023-07-08T14:23:45;36.50;31.90
51476;DHT22;37554;50.362;7.568;2023-07-08T14:26:11;36.50;31.60
51476;DHT22;37554;50.362;7.568;2023-07-08T14:28:37;36.70;31.50
51476;DHT22;37554;50.362;7.568;2023-07-08T14:31:04;36.90;31.30
51476;DHT22;37554;50.362;7.568;2023-07-08T14:33:34;37.20;31.40
51476;DHT22;37554;50.362;7.568;2023-07-08T14:35:59;37.30;31.30
51476;DHT22;37554;50.362;7.568;2023-07-08T14:38:25;37.40;30.90
51476;DHT22;37554;50.362;7.568;2023-07-08T14:40:51;37.40;30.70
51476;DHT22;37554;50.362;7.568;2023-07-08T14:43:27;37.40;30.80
51476;DHT22;37554;50.362;7.568;2023-07-08T14:45:55;37.40;30.50
51476;DHT22;37554;50.362;7.568;2023-07-08T14:48:21;37.30;30.60
51476;DHT22;37554;50.362;7.568;2023-07-08T14:50:47;37.20;30.80
51476;DHT22;37554;50.362;7.568;2023-07-08T14:53:17;37.30;31.00
51476;DHT22;37554;50.362;7.568;2023-07-08T14:55:45;37.30;30.90
51476;DHT22;37554;50.362;7.568;2023-07-08T14:58:29;37.10;30.80
51476;DHT22;37554;50.362;7.568;2023-07-08T15:00:58;36.70;30.80
51476;DHT22;37554;50.362;7.568;2023-07-08T15:03:25;36.40;31.40
51476;DHT22;37554;50.362;7.568;2023-07-08T15:05:51;36.20;31.60
51476;DHT22;37554;50.362;7.568;2023-07-08T15:08:17;36.10;31.90
51476;DHT22;37554;50.362;7.568;2023-07-08T15:10:50;36.00;32.20
51476;DHT22;37554;50.362;7.568;2023-07-08T15:13:18;35.90;32.40
51476;DHT22;37554;50.362;7.568;2023-07-08T15:15:45;36.00;33.00
51476;DHT22;37554;50.362;7.568;2023-07-08T15:18:13;36.00;32.50
51476;DHT22;37554;50.362;7.568;2023-07-08T15:20:39;35.80;32.60
51476;DHT22;37554;50.362;7.568;2023-07-08T15:23:05;35.60;32.60
51476;DHT22;37554;50.362;7.568;2023-07-08T15:25:31;35.60;32.70
51476;DHT22;37554;50.362;7.568;2023-07-08T15:27:59;35.70;32.90
51476;DHT22;37554;50.362;7.568;2023-07-08T15:30:27;35.80;33.00
51476;DHT22;37554;50.362;7.568;2023-07-08T15:32:53;35.80;32.80
51476;DHT22;37554;50.362;7.568;2023-07-08T15:35:29;35.90;33.50
51476;DHT22;37554;50.362;7.568;2023-07-08T15:37:56;35.90;32.70
51476;DHT22;37554;50.362;7.568;2023-07-08T15:40:23;35.90;32.70
51476;DHT22;37554;50.362;7.568;2023-07-08T15:42:52;35.90;32.60
51476;DHT22;37554;50.362;7.568;2023-07-08T15:45:28;35.70;32.70
51476;DHT22;37554;50.362;7.568;2023-07-08T15:47:54;35.80;32.80
51476;DHT22;37554;50.362;7.568;2023-07-08T15:50:22;35.70;32.70
51476;DHT22;37554;50.362;7.568;2023-07-08T15:52:49;35.60;32.70
51476;DHT22;37554;50.362;7.568;2023-07-08T15:55:20;35.70;32.70
51476;DHT22;37554;50.362;7.568;2023-07-08T15:57:48;35.80;32.70
51476;DHT22;37554;50.362;7.568;2023-07-08T16:00:21;35.80;32.40
51476;DHT22;37554;50.362;7.568;2023-07-08T16:02:51;35.70;32.90
51476;DHT22;37554;50.362;7.568;2023-07-08T16:05:18;35.60;32.70
51476;DHT22;37554;50.362;7.568;2023-07-08T16:07:46;35.60;32.80
51476;DHT22;37554;50.362;7.568;2023-07-08T16:10:12;35.50;32.90
51476;DHT22;37554;50.362;7.568;2023-07-08T16:12:38;35.60;33.10
51476;DHT22;37554;50.362;7.568;2023-07-08T16:15:07;35.60;33.00
51476;DHT22;37554;50.362;7.568;2023-07-08T16:17:36;35.60;33.20
51476;DHT22;37554;50.362;7.568;2023-07-08T16:20:04;35.60;33.60
51476;DHT22;37554;50.362;7.568;2023-07-08T16:22:34;35.70;33.80
51476;DHT22;37554;50.362;7.568;2023-07-08T16:24:59;35.70;33.60
51476;DHT22;37554;50.362;7.568;2023-07-08T16:27:25;35.70;33.50
51476;DHT22;37554;50.362;7.568;2023-07-08T16:29:51;35.80;33.30
51476;DHT22;37554;50.362;7.568;2023-07-08T16:32:16;35.70;33.30